sensor_id;sensor_type;location;lat;lon;timestamp;pressure;altitude;pressure_sealevel;temperature;humidity
41886;BME280;27567;43.084;25.616;2022-09-09T00:02:27;98258.38;;;20.67;100.00
41886;BME280;27567;43.084;25.616;2022-09-09T00:08:22;98259.72;;;20.54;100.00
41886;BME280;27567;43.084;25.616;2022-09-09T00:11:10;98261.91;;;20.57;100.00
41886;BME280;27567;43.084;25.616;2022-09-09T00:13:58;98268.94;;;20.48;100.00
41886;BME280;27567;43.084;25.616;2022-09-09T00:16:51;98265.72;;;20.46;100.00
41886;BME280;27567;43.084;25.616;2022-09-09T00:19:50;98274.16;;;20.50;100.00
41886;BME280;27567;43.084;25.616;2022-09-09T00:22:41;98275.50;;;20.42;100.00
41886;BME280;27567;43.084;25.616;2022-09-09T00:25:39;98270.03;;;20.42;100.00
41886;BME280;27567;43.084;25.616;2022-09-09T00:28:27;98270.03;;;20.42;100.00
41886;BME280;27567;43.084;25.616;2022-09-09T00:31:21;98269.75;;;20.38;100.00
41886;BME280;27567;43.084;25.616;2022-09-09T00:34:21;98267.56;;;20.35;100.00
41886;BME280;27567;43.084;25.616;2022-09-09T00:37:08;98266.47;;;20.31;100.00
41886;BME280;27567;43.084;25.616;2022-09-09T00:39:55;98261.28;;;20.30;100.00
41886;BME280;27567;43.084;25.616;2022-09-09T00:42:43;98256.66;;;20.25;100.00
41886;BME280;27567;43.084;25.616;2022-09-09T00:57:29;98252.53;;;20.22;100.00
41886;BME280;27567;43.084;25.616;2022-09-09T01:12:14;98250.06;;;20.16;100.00
41886;BME280;27567;43.084;25.616;2022-09-09T01:15:19;98247.38;;;20.21;100.00
41886;BME280;27567;43.084;25.616;2022-09-09T01:18:08;98253.63;;;20.16;100.00
41886;BME280;27567;43.084;25.616;2022-09-09T01:26:51;98250.91;;;20.16;100.00
41886;BME280;27567;43.084;25.616;2022-09-09T01:29:36;98245.16;;;20.07;100.00
41886;BME280;27567;43.084;25.616;2022-09-09T01:38:18;98248.91;;;19.96;100.00
41886;BME280;27567;43.084;25.616;2022-09-09T01:41:03;98242.13;;;19.93;100.00
41886;BME280;27567;43.084;25.616;2022-09-09T01:43:48;98245.34;;;19.90;100.00
41886;BME280;27567;43.084;25.616;2022-09-09T01:46:32;98248.63;;;19.92;100.00
41886;BME280;27567;43.084;25.616;2022-09-09T01:49:17;98244.53;;;19.90;100.00
41886;BME280;27567;43.084;25.616;2022-09-09T01:52:02;98240.41;;;19.87;100.00
41886;BME280;27567;43.084;25.616;2022-09-09T01:54:46;98236.34;;;19.85;100.00
41886;BME280;27567;43.084;25.616;2022-09-09T01:57:36;98243.13;;;19.87;100.00
41886;BME280;27567;43.084;25.616;2022-09-09T02:00:23;98242.84;;;19.83;100.00
41886;BME280;27567;43.084;25.616;2022-09-09T02:06:29;98253.16;;;19.76;100.00
41886;BME280;27567;43.084;25.616;2022-09-09T02:09:17;98244.72;;;19.73;100.00
41886;BME280;27567;43.084;25.616;2022-09-09T02:12:11;98237.63;;;19.72;100.00
41886;BME280;27567;43.084;25.616;2022-09-09T02:15:03;98239.78;;;19.70;100.00
41886;BME280;27567;43.084;25.616;2022-09-09T02:17:50;98241.13;;;19.67;100.00
41886;BME280;27567;43.084;25.616;2022-09-09T02:20:37;98241.06;;;19.57;100.00
41886;BME280;27567;43.084;25.616;2022-09-09T02:23:22;98235.63;;;19.57;100.00
41886;BME280;27567;43.084;25.616;2022-09-09T02:26:08;98243.56;;;19.63;100.00
41886;BME280;27567;43.084;25.616;2022-09-09T02:28:54;98223.13;;;19.56;100.00
41886;BME280;27567;43.084;25.616;2022-09-09T02:31:41;98238.59;;;19.50;100.00
41886;BME280;27567;43.084;25.616;2022-09-09T02:34:27;98233.31;;;19.38;100.00
41886;BME280;27567;43.084;25.616;2022-09-09T02:37:15;98243.16;;;19.44;100.00
41886;BME280;27567;43.084;25.616;2022-09-09T02:40:06;98240.94;;;19.36;100.00
41886;BME280;27567;43.084;25.616;2022-09-09T02:42:54;98235.47;;;19.31;100.00
41886;BME280;27567;43.084;25.616;2022-09-09T02:49:20;98231.06;;;19.25;100.00
41886;BME280;27567;43.084;25.616;2022-09-09T02:52:08;98230.28;;;19.24;100.00
41886;BME280;27567;43.084;25.616;2022-09-09T02:54:53;98232.44;;;19.22;100.00
41886;BME280;27567;43.084;25.616;2022-09-09T02:57:43;98229.38;;;19.13;100.00
41886;BME280;27567;43.084;25.616;2022-09-09T03:00:31;98225.56;;;19.14;100.00
41886;BME280;27567;43.084;25.616;2022-09-09T03:03:17;98228.31;;;19.19;100.00
41886;BME280;27567;43.084;25.616;2022-09-09T03:06:03;98222.03;;;19.14;100.00
41886;BME280;27567;43.084;25.616;2022-09-09T03:08:49;98220.09;;;19.09;100.00
41886;BME280;27567;43.084;25.616;2022-09-09T03:11:33;98221.22;;;19.13;100.00
41886;BME280;27567;43.084;25.616;2022-09-09T03:14:17;98225.03;;;19.12;100.00
41886;BME280;27567;43.084;25.616;2022-09-09T03:17:06;98212.72;;;19.04;100.00
41886;BME280;27567;43.084;25.616;2022-09-09T03:19:50;98205.41;;;19.05;100.00
41886;BME280;27567;43.084;25.616;2022-09-09T03:22:36;98214.59;;;18.99;100.00
41886;BME280;27567;43.084;25.616;2022-09-09T03:25:21;98218.66;;;18.96;100.00
41886;BME280;27567;43.084;25.616;2022-09-09T03:28:07;98228.59;;;18.90;100.00
41886;BME280;27567;43.084;25.616;2022-09-09T03:30:51;98222.63;;;18.88;100.00
41886;BME280;27567;43.084;25.616;2022-09-09T03:33:37;98222.06;;;18.86;100.00
41886;BME280;27567;43.084;25.616;2022-09-09T03:36:21;98223.16;;;18.90;100.00
41886;BME280;27567;43.084;25.616;2022-09-09T03:39:05;98227.00;;;18.95;100.00
41886;BME280;27567;43.084;25.616;2022-09-09T03:41:49;98232.44;;;18.95;100.00
41886;BME280;27567;43.084;25.616;2022-09-09T03:44:33;98234.34;;;18.94;100.00
41886;BME280;27567;43.084;25.616;2022-09-09T03:47:18;98235.75;;;18.97;100.00
41886;BME280;27567;43.084;25.616;2022-09-09T03:50:04;98223.94;;;18.86;100.00
41886;BME280;27567;43.084;25.616;2022-09-09T03:52:51;98234.81;;;18.86;100.00
41886;BME280;27567;43.084;25.616;2022-09-09T03:55:35;98232.09;;;18.86;100.00
41886;BME280;27567;43.084;25.616;2022-09-09T03:58:21;98240.00;;;18.87;100.00
41886;BME280;27567;43.084;25.616;2022-09-09T04:01:08;98239.97;;;18.82;100.00
41886;BME280;27567;43.084;25.616;2022-09-09T04:03:52;98234.19;;;18.73;100.00
41886;BME280;27567;43.084;25.616;2022-09-09T04:06:36;98235.81;;;18.74;100.00
41886;BME280;27567;43.084;25.616;2022-09-09T04:09:20;98236.91;;;18.73;100.00
41886;BME280;27567;43.084;25.616;2022-09-09T04:12:04;98242.72;;;18.87;100.00
41886;BME280;27567;43.084;25.616;2022-09-09T04:14:48;98243.91;;;18.97;100.00
41886;BME280;27567;43.084;25.616;2022-09-09T04:17:32;98249.59;;;18.95;100.00
41886;BME280;27567;43.084;25.616;2022-09-09T04:20:19;98244.22;;;19.00;100.00
41886;BME280;27567;43.084;25.616;2022-09-09T04:23:03;98245.13;;;19.11;100.00
41886;BME280;27567;43.084;25.616;2022-09-09T04:25:53;98242.66;;;19.10;100.00
41886;BME280;27567;43.084;25.616;2022-09-09T04:28:38;98245.38;;;19.10;100.00
41886;BME280;27567;43.084;25.616;2022-09-09T04:31:22;98244.38;;;19.21;100.00
41886;BME280;27567;43.084;25.616;2022-09-09T04:34:08;98248.56;;;19.39;100.00
41886;BME280;27567;43.084;25.616;2022-09-09T04:36:53;98255.69;;;19.45;100.00
41886;BME280;27567;43.084;25.616;2022-09-09T04:39:37;98252.41;;;19.43;100.00
41886;BME280;27567;43.084;25.616;2022-09-09T04:42:21;98256.22;;;19.47;100.00
41886;BME280;27567;43.084;25.616;2022-09-09T04:45:06;98248.72;;;19.60;100.00
41886;BME280;27567;43.084;25.616;2022-09-09T04:47:50;98250.03;;;19.57;100.00
41886;BME280;27567;43.084;25.616;2022-09-09T04:50:34;98245.44;;;19.63;100.00
41886;BME280;27567;43.084;25.616;2022-09-09T04:53:18;98259.63;;;19.70;100.00
41886;BME280;27567;43.084;25.616;2022-09-09T04:56:12;98258.09;;;19.85;100.00
41886;BME280;27567;43.084;25.616;2022-09-09T04:58:57;98245.09;;;19.97;100.00
41886;BME280;27567;43.084;25.616;2022-09-09T05:01:41;98253.31;;;20.07;100.00
41886;BME280;27567;43.084;25.616;2022-09-09T05:04:25;98258.22;;;20.16;100.00
41886;BME280;27567;43.084;25.616;2022-09-09T05:07:08;98265.91;;;20.24;100.00
41886;BME280;27567;43.084;25.616;2022-09-09T05:09:52;98259.38;;;20.25;100.00
41886;BME280;27567;43.084;25.616;2022-09-09T05:12:37;98266.75;;;20.35;100.00
41886;BME280;27567;43.084;25.616;2022-09-09T05:15:21;98269.50;;;20.40;100.00
41886;BME280;27567;43.084;25.616;2022-09-09T05:18:05;98256.72;;;20.51;100.00
41886;BME280;27567;43.084;25.616;2022-09-09T05:20:49;98252.38;;;20.60;100.00
41886;BME280;27567;43.084;25.616;2022-09-09T05:23:35;98260.03;;;20.68;100.00
41886;BME280;27567;43.084;25.616;2022-09-09T05:26:21;98255.19;;;20.81;100.00
41886;BME280;27567;43.084;25.616;2022-09-09T05:29:05;98247.81;;;20.92;100.00
41886;BME280;27567;43.084;25.616;2022-09-09T05:31:49;98255.44;;;20.95;100.00
41886;BME280;27567;43.084;25.616;2022-09-09T05:34:34;98253.00;;;21.14;100.00
41886;BME280;27567;43.084;25.616;2022-09-09T05:37:18;98254.63;;;21.25;100.00
41886;BME280;27567;43.084;25.616;2022-09-09T05:40:03;98250.25;;;21.35;100.00
41886;BME280;27567;43.084;25.616;2022-09-09T05:42:47;98240.69;;;21.63;100.00
41886;BME280;27567;43.084;25.616;2022-09-09T05:45:31;98238.47;;;21.81;100.00
41886;BME280;27567;43.084;25.616;2022-09-09T05:48:15;98232.94;;;21.96;100.00
41886;BME280;27567;43.084;25.616;2022-09-09T05:51:00;98219.19;;;22.17;100.00
41886;BME280;27567;43.084;25.616;2022-09-09T05:53:46;98229.00;;;22.18;100.00
41886;BME280;27567;43.084;25.616;2022-09-09T05:56:30;98228.75;;;22.14;100.00
41886;BME280;27567;43.084;25.616;2022-09-09T05:59:16;98235.31;;;22.13;100.00
41886;BME280;27567;43.084;25.616;2022-09-09T06:02:00;98247.19;;;22.48;100.00
41886;BME280;27567;43.084;25.616;2022-09-09T06:04:44;98234.84;;;22.56;100.00
41886;BME280;27567;43.084;25.616;2022-09-09T06:07:28;98238.66;;;22.60;100.00
41886;BME280;27567;43.084;25.616;2022-09-09T06:10:12;98227.81;;;22.85;100.00
41886;BME280;27567;43.084;25.616;2022-09-09T06:12:59;98224.91;;;23.05;100.00
41886;BME280;27567;43.084;25.616;2022-09-09T06:15:50;98222.91;;;23.16;100.00
41886;BME280;27567;43.084;25.616;2022-09-09T06:18:35;98219.44;;;23.05;100.00
41886;BME280;27567;43.084;25.616;2022-09-09T06:21:22;98213.00;;;23.25;100.00
41886;BME280;27567;43.084;25.616;2022-09-09T06:24:06;98212.41;;;23.58;100.00
41886;BME280;27567;43.084;25.616;2022-09-09T06:26:54;98216.41;;;23.66;100.00
41886;BME280;27567;43.084;25.616;2022-09-09T06:29:37;98212.03;;;23.65;100.00
41886;BME280;27567;43.084;25.616;2022-09-09T06:32:22;98211.25;;;23.64;100.00
41886;BME280;27567;43.084;25.616;2022-09-09T06:35:06;98221.38;;;23.88;100.00
41886;BME280;27567;43.084;25.616;2022-09-09T06:37:51;98220.94;;;24.05;100.00
41886;BME280;27567;43.084;25.616;2022-09-09T06:40:36;98225.88;;;24.22;98.07
41886;BME280;27567;43.084;25.616;2022-09-09T06:43:21;98226.50;;;24.38;97.17
41886;BME280;27567;43.084;25.616;2022-09-09T06:46:16;98227.53;;;24.42;95.11
41886;BME280;27567;43.084;25.616;2022-09-09T06:49:01;98223.03;;;24.33;96.86
41886;BME280;27567;43.084;25.616;2022-09-09T06:51:46;98217.22;;;24.34;95.31
41886;BME280;27567;43.084;25.616;2022-09-09T06:54:30;98216.28;;;24.63;94.54
41886;BME280;27567;43.084;25.616;2022-09-09T06:57:17;98221.50;;;24.98;91.25
41886;BME280;27567;43.084;25.616;2022-09-09T07:00:01;98214.25;;;25.07;90.20
41886;BME280;27567;43.084;25.616;2022-09-09T07:02:45;98219.94;;;25.11;90.75
41886;BME280;27567;43.084;25.616;2022-09-09T07:05:30;98221.09;;;25.38;88.92
41886;BME280;27567;43.084;25.616;2022-09-09T07:08:14;98225.72;;;25.56;88.66
41886;BME280;27567;43.084;25.616;2022-09-09T07:11:04;98213.63;;;25.57;88.16
41886;BME280;27567;43.084;25.616;2022-09-09T07:13:51;98210.28;;;25.74;86.61
41886;BME280;27567;43.084;25.616;2022-09-09T07:16:35;98208.16;;;25.99;86.06
41886;BME280;27567;43.084;25.616;2022-09-09T07:19:21;98214.47;;;26.00;84.79
41886;BME280;27567;43.084;25.616;2022-09-09T07:22:05;98208.03;;;26.04;83.08
41886;BME280;27567;43.084;25.616;2022-09-09T07:24:50;98212.22;;;26.16;82.95
41886;BME280;27567;43.084;25.616;2022-09-09T07:27:34;98210.97;;;26.22;82.48
41886;BME280;27567;43.084;25.616;2022-09-09T07:30:17;98207.69;;;26.34;81.47
41886;BME280;27567;43.084;25.616;2022-09-09T07:33:03;98208.16;;;26.50;81.54
41886;BME280;27567;43.084;25.616;2022-09-09T07:35:47;98220.34;;;26.58;82.07
41886;BME280;27567;43.084;25.616;2022-09-09T07:38:31;98211.78;;;26.96;78.50
41886;BME280;27567;43.084;25.616;2022-09-09T07:41:18;98215.53;;;27.00;76.13
41886;BME280;27567;43.084;25.616;2022-09-09T07:44:08;98210.06;;;27.09;75.91
41886;BME280;27567;43.084;25.616;2022-09-09T07:46:53;98215.09;;;27.38;76.08
41886;BME280;27567;43.084;25.616;2022-09-09T07:49:37;98209.22;;;27.54;74.06
41886;BME280;27567;43.084;25.616;2022-09-09T07:52:21;98206.41;;;27.45;73.94
41886;BME280;27567;43.084;25.616;2022-09-09T07:55:05;98211.50;;;27.60;73.86
41886;BME280;27567;43.084;25.616;2022-09-09T07:57:50;98214.50;;;27.82;72.16
41886;BME280;27567;43.084;25.616;2022-09-09T08:00:34;98209.50;;;27.93;71.80
41886;BME280;27567;43.084;25.616;2022-09-09T08:03:18;98207.91;;;28.09;70.59
41886;BME280;27567;43.084;25.616;2022-09-09T08:06:04;98215.28;;;28.49;66.60
41886;BME280;27567;43.084;25.616;2022-09-09T08:08:51;98219.53;;;28.46;65.18
41886;BME280;27567;43.084;25.616;2022-09-09T08:11:36;98212.38;;;28.45;63.76
41886;BME280;27567;43.084;25.616;2022-09-09T08:14:20;98220.06;;;28.08;64.00
41886;BME280;27567;43.084;25.616;2022-09-09T08:17:05;98216.50;;;27.99;63.41
41886;BME280;27567;43.084;25.616;2022-09-09T08:19:49;98203.84;;;27.89;64.11
41886;BME280;27567;43.084;25.616;2022-09-09T08:22:33;98200.09;;;27.85;63.81
41886;BME280;27567;43.084;25.616;2022-09-09T08:25:18;98196.50;;;28.33;63.17
41886;BME280;27567;43.084;25.616;2022-09-09T08:28:02;98180.09;;;28.37;62.60
41886;BME280;27567;43.084;25.616;2022-09-09T08:30:46;98181.88;;;28.33;62.81
41886;BME280;27567;43.084;25.616;2022-09-09T08:33:32;98182.84;;;28.37;61.59
41886;BME280;27567;43.084;25.616;2022-09-09T08:36:19;98180.28;;;28.58;61.73
41886;BME280;27567;43.084;25.616;2022-09-09T08:39:05;98166.00;;;28.65;60.78
41886;BME280;27567;43.084;25.616;2022-09-09T08:45:09;98172.94;;;28.98;60.29
41886;BME280;27567;43.084;25.616;2022-09-09T08:50:42;98175.91;;;29.40;58.93
41886;BME280;27567;43.084;25.616;2022-09-09T08:53:29;98171.91;;;29.20;58.66
41886;BME280;27567;43.084;25.616;2022-09-09T08:56:23;98171.75;;;29.25;59.15
41886;BME280;27567;43.084;25.616;2022-09-09T08:59:11;98176.66;;;29.10;58.65
41886;BME280;27567;43.084;25.616;2022-09-09T09:02:19;98171.78;;;29.07;58.68
41886;BME280;27567;43.084;25.616;2022-09-09T09:05:17;98152.19;;;29.78;57.41
41886;BME280;27567;43.084;25.616;2022-09-09T09:11:38;98157.03;;;29.12;58.60
41886;BME280;27567;43.084;25.616;2022-09-09T09:14:27;98155.72;;;29.09;59.08
41886;BME280;27567;43.084;25.616;2022-09-09T09:17:19;98154.03;;;29.26;58.95
41886;BME280;27567;43.084;25.616;2022-09-09T09:20:10;98153.91;;;29.14;59.51
41886;BME280;27567;43.084;25.616;2022-09-09T09:23:00;98158.44;;;29.96;57.82
41886;BME280;27567;43.084;25.616;2022-09-09T09:25:45;98158.81;;;30.16;56.42
41886;BME280;27567;43.084;25.616;2022-09-09T09:28:31;98157.91;;;30.03;57.21
41886;BME280;27567;43.084;25.616;2022-09-09T09:31:19;98161.31;;;30.29;56.61
41886;BME280;27567;43.084;25.616;2022-09-09T09:34:04;98154.00;;;29.74;57.47
41886;BME280;27567;43.084;25.616;2022-09-09T09:36:59;98155.44;;;29.80;57.49
41886;BME280;27567;43.084;25.616;2022-09-09T09:39:46;98151.28;;;29.65;57.55
41886;BME280;27567;43.084;25.616;2022-09-09T09:42:30;98157.28;;;29.67;58.34
41886;BME280;27567;43.084;25.616;2022-09-09T09:45:28;98154.88;;;29.65;58.41
41886;BME280;27567;43.084;25.616;2022-09-09T09:48:13;98138.00;;;29.58;58.27
41886;BME280;27567;43.084;25.616;2022-09-09T09:51:00;98128.94;;;29.58;59.42
41886;BME280;27567;43.084;25.616;2022-09-09T09:53:46;98128.28;;;29.82;58.74
41886;BME280;27567;43.084;25.616;2022-09-09T09:56:30;98134.00;;;29.77;58.77
41886;BME280;27567;43.084;25.616;2022-09-09T09:59:35;98129.81;;;30.01;57.87
41886;BME280;27567;43.084;25.616;2022-09-09T10:02:22;98127.66;;;30.27;57.89
41886;BME280;27567;43.084;25.616;2022-09-09T10:05:51;98133.25;;;30.61;56.37
41886;BME280;27567;43.084;25.616;2022-09-09T10:08:28;98127.44;;;31.33;54.97
41886;BME280;27567;43.084;25.616;2022-09-09T10:11:33;98126.38;;;32.00;51.67
41886;BME280;27567;43.084;25.616;2022-09-09T10:20:39;98128.16;;;35.28;43.24
41886;BME280;27567;43.084;25.616;2022-09-09T10:35:43;98125.75;;;35.03;41.17
41886;BME280;27567;43.084;25.616;2022-09-09T10:38:39;98128.66;;;36.45;38.54
41886;BME280;27567;43.084;25.616;2022-09-09T10:44:34;98117.91;;;36.43;38.03
41886;BME280;27567;43.084;25.616;2022-09-09T10:47:44;98110.44;;;36.51;37.39
41886;BME280;27567;43.084;25.616;2022-09-09T10:56:26;98107.16;;;37.77;35.28
41886;BME280;27567;43.084;25.616;2022-09-09T10:59:24;98102.41;;;36.87;36.02
41886;BME280;27567;43.084;25.616;2022-09-09T11:02:22;98093.22;;;38.83;33.54
41886;BME280;27567;43.084;25.616;2022-09-09T11:06:03;98094.16;;;36.94;35.87
41886;BME280;27567;43.084;25.616;2022-09-09T11:08:29;98091.69;;;37.34;34.92
41886;BME280;27567;43.084;25.616;2022-09-09T11:11:26;98097.63;;;39.86;31.88
41886;BME280;27567;43.084;25.616;2022-09-09T11:14:14;98088.47;;;41.27;30.00
41886;BME280;27567;43.084;25.616;2022-09-09T11:17:10;98093.91;;;38.37;32.41
41886;BME280;27567;43.084;25.616;2022-09-09T11:19:57;98093.44;;;38.24;32.84
41886;BME280;27567;43.084;25.616;2022-09-09T11:22:59;98090.25;;;38.22;32.50
41886;BME280;27567;43.084;25.616;2022-09-09T11:25:55;98083.81;;;38.17;32.78
41886;BME280;27567;43.084;25.616;2022-09-09T11:31:51;98080.81;;;37.81;33.56
41886;BME280;27567;43.084;25.616;2022-09-09T11:40:46;98074.44;;;37.81;33.56
41886;BME280;27567;43.084;25.616;2022-09-09T11:46:21;98073.56;;;38.51;32.33
41886;BME280;27567;43.084;25.616;2022-09-09T11:49:26;98071.94;;;35.45;36.59
41886;BME280;27567;43.084;25.616;2022-09-09T11:55:24;98059.91;;;34.09;41.35
41886;BME280;27567;43.084;25.616;2022-09-09T12:00:55;98050.34;;;37.58;35.24
41886;BME280;27567;43.084;25.616;2022-09-09T12:03:45;98047.47;;;38.32;33.96
41886;BME280;27567;43.084;25.616;2022-09-09T12:06:32;98040.94;;;37.92;33.95
41886;BME280;27567;43.084;25.616;2022-09-09T12:09:33;98040.88;;;37.77;33.80
41886;BME280;27567;43.084;25.616;2022-09-09T12:12:26;98038.88;;;40.42;30.95
41886;BME280;27567;43.084;25.616;2022-09-09T12:17:58;98027.50;;;38.33;31.64
41886;BME280;27567;43.084;25.616;2022-09-09T12:24:27;98029.84;;;33.07;41.91
41886;BME280;27567;43.084;25.616;2022-09-09T12:27:28;98033.91;;;32.49;44.17
41886;BME280;27567;43.084;25.616;2022-09-09T12:30:15;98023.25;;;32.23;45.93
41886;BME280;27567;43.084;25.616;2022-09-09T12:33:11;98019.03;;;32.86;44.26
41886;BME280;27567;43.084;25.616;2022-09-09T12:35:58;98014.44;;;32.94;44.37
41886;BME280;27567;43.084;25.616;2022-09-09T12:38:45;98013.06;;;32.56;46.00
41886;BME280;27567;43.084;25.616;2022-09-09T12:41:29;98009.81;;;32.53;46.09
41886;BME280;27567;43.084;25.616;2022-09-09T12:44:14;98005.81;;;31.94;47.13
41886;BME280;27567;43.084;25.616;2022-09-09T12:47:01;97999.91;;;31.42;48.53
41886;BME280;27567;43.084;25.616;2022-09-09T12:49:47;98001.84;;;31.54;49.46
41886;BME280;27567;43.084;25.616;2022-09-09T12:52:35;98009.50;;;31.45;51.15
41886;BME280;27567;43.084;25.616;2022-09-09T12:55:25;98020.22;;;30.97;52.86
41886;BME280;27567;43.084;25.616;2022-09-09T12:58:13;98002.91;;;30.75;53.85
41886;BME280;27567;43.084;25.616;2022-09-09T13:01:03;98011.91;;;30.38;55.22
41886;BME280;27567;43.084;25.616;2022-09-09T13:03:52;98012.31;;;30.16;57.36
41886;BME280;27567;43.084;25.616;2022-09-09T13:06:37;98001.44;;;29.98;59.58
41886;BME280;27567;43.084;25.616;2022-09-09T13:09:21;98009.31;;;30.08;60.47
41886;BME280;27567;43.084;25.616;2022-09-09T13:12:09;98004.78;;;30.04;60.73
41886;BME280;27567;43.084;25.616;2022-09-09T13:14:57;98009.56;;;30.16;61.03
41886;BME280;27567;43.084;25.616;2022-09-09T13:17:41;98000.53;;;29.85;63.21
41886;BME280;27567;43.084;25.616;2022-09-09T13:20:25;98010.44;;;29.86;64.50
41886;BME280;27567;43.084;25.616;2022-09-09T13:23:11;98007.88;;;29.81;65.13
41886;BME280;27567;43.084;25.616;2022-09-09T13:25:58;98013.53;;;29.63;66.64
41886;BME280;27567;43.084;25.616;2022-09-09T13:28:42;98006.13;;;29.76;66.61
41886;BME280;27567;43.084;25.616;2022-09-09T13:31:33;98011.66;;;29.76;66.42
41886;BME280;27567;43.084;25.616;2022-09-09T13:34:28;98016.84;;;29.57;68.13
41886;BME280;27567;43.084;25.616;2022-09-09T13:37:29;98007.41;;;29.58;69.16
41886;BME280;27567;43.084;25.616;2022-09-09T13:40:21;98019.19;;;29.46;70.16
41886;BME280;27567;43.084;25.616;2022-09-09T13:43:17;98011.94;;;29.32;72.12
41886;BME280;27567;43.084;25.616;2022-09-09T13:46:33;98020.19;;;29.11;73.21
41886;BME280;27567;43.084;25.616;2022-09-09T13:49:21;98007.53;;;29.01;74.93
41886;BME280;27567;43.084;25.616;2022-09-09T13:52:16;98014.28;;;28.83;77.08
41886;BME280;27567;43.084;25.616;2022-09-09T13:55:02;98004.00;;;29.01;76.31
41886;BME280;27567;43.084;25.616;2022-09-09T13:57:51;97995.53;;;29.06;76.55
41886;BME280;27567;43.084;25.616;2022-09-09T14:00:36;98010.09;;;29.45;74.94
41886;BME280;27567;43.084;25.616;2022-09-09T14:03:20;98011.94;;;29.83;72.14
41886;BME280;27567;43.084;25.616;2022-09-09T14:06:05;98013.22;;;30.07;71.22
41886;BME280;27567;43.084;25.616;2022-09-09T14:08:50;98013.59;;;30.18;70.36
41886;BME280;27567;43.084;25.616;2022-09-09T14:11:34;98015.16;;;30.40;69.96
41886;BME280;27567;43.084;25.616;2022-09-09T14:14:18;98010.19;;;30.34;69.99
41886;BME280;27567;43.084;25.616;2022-09-09T14:17:02;98004.09;;;30.40;69.80
41886;BME280;27567;43.084;25.616;2022-09-09T14:19:47;98011.44;;;30.24;70.97
41886;BME280;27567;43.084;25.616;2022-09-09T14:22:30;98008.69;;;30.03;72.63
41886;BME280;27567;43.084;25.616;2022-09-09T14:25:14;98009.03;;;30.01;73.39
41886;BME280;27567;43.084;25.616;2022-09-09T14:27:58;98004.41;;;29.72;75.67
41886;BME280;27567;43.084;25.616;2022-09-09T14:30:43;98005.75;;;29.35;78.57
41886;BME280;27567;43.084;25.616;2022-09-09T14:33:30;97997.94;;;29.07;80.49
41886;BME280;27567;43.084;25.616;2022-09-09T14:36:15;98006.88;;;29.04;81.96
41886;BME280;27567;43.084;25.616;2022-09-09T14:39:03;98003.84;;;28.97;83.18
41886;BME280;27567;43.084;25.616;2022-09-09T14:41:48;98002.28;;;28.78;84.09
41886;BME280;27567;43.084;25.616;2022-09-09T14:44:32;98001.66;;;28.73;85.58
41886;BME280;27567;43.084;25.616;2022-09-09T14:47:16;98004.09;;;28.65;86.56
41886;BME280;27567;43.084;25.616;2022-09-09T14:50:00;98007.53;;;28.62;86.86
41886;BME280;27567;43.084;25.616;2022-09-09T14:52:47;98027.00;;;28.57;88.54
41886;BME280;27567;43.084;25.616;2022-09-09T14:55:31;98023.63;;;28.52;90.69
41886;BME280;27567;43.084;25.616;2022-09-09T14:58:15;98025.03;;;28.58;91.33
41886;BME280;27567;43.084;25.616;2022-09-09T15:01:04;98024.31;;;28.40;94.01
41886;BME280;27567;43.084;25.616;2022-09-09T15:03:54;98015.56;;;28.20;95.70
41886;BME280;27567;43.084;25.616;2022-09-09T15:06:39;98025.81;;;28.11;97.32
41886;BME280;27567;43.084;25.616;2022-09-09T15:09:25;98030.63;;;27.96;99.63
41886;BME280;27567;43.084;25.616;2022-09-09T15:12:09;98023.69;;;27.90;100.00
41886;BME280;27567;43.084;25.616;2022-09-09T15:14:53;98034.03;;;27.84;100.00
41886;BME280;27567;43.084;25.616;2022-09-09T15:17:38;98029.16;;;27.81;100.00
41886;BME280;27567;43.084;25.616;2022-09-09T15:20:22;98035.78;;;27.71;100.00
41886;BME280;27567;43.084;25.616;2022-09-09T15:23:07;98032.72;;;27.64;100.00
41886;BME280;27567;43.084;25.616;2022-09-09T15:25:53;98037.09;;;27.56;100.00
41886;BME280;27567;43.084;25.616;2022-09-09T15:28:38;98032.03;;;27.50;100.00
41886;BME280;27567;43.084;25.616;2022-09-09T15:31:26;98036.13;;;27.52;100.00
41886;BME280;27567;43.084;25.616;2022-09-09T15:34:12;98042.75;;;27.51;100.00
41886;BME280;27567;43.084;25.616;2022-09-09T15:36:57;98046.63;;;27.50;100.00
41886;BME280;27567;43.084;25.616;2022-09-09T15:39:43;98049.88;;;27.52;100.00
41886;BME280;27567;43.084;25.616;2022-09-09T15:42:27;98047.88;;;27.44;100.00
41886;BME280;27567;43.084;25.616;2022-09-09T15:45:11;98055.22;;;27.57;100.00
41886;BME280;27567;43.084;25.616;2022-09-09T15:47:56;98057.81;;;27.63;100.00
41886;BME280;27567;43.084;25.616;2022-09-09T15:50:40;98057.16;;;27.57;100.00
41886;BME280;27567;43.084;25.616;2022-09-09T15:53:24;98064.16;;;27.63;100.00
41886;BME280;27567;43.084;25.616;2022-09-09T15:56:08;98059.53;;;27.41;100.00
41886;BME280;27567;43.084;25.616;2022-09-09T15:58:53;98060.81;;;27.35;100.00
41886;BME280;27567;43.084;25.616;2022-09-09T16:01:39;98061.94;;;27.34;100.00
41886;BME280;27567;43.084;25.616;2022-09-09T16:04:24;98061.25;;;27.19;100.00
41886;BME280;27567;43.084;25.616;2022-09-09T16:07:08;98057.31;;;27.03;100.00
41886;BME280;27567;43.084;25.616;2022-09-09T16:09:52;98052.81;;;27.07;100.00
41886;BME280;27567;43.084;25.616;2022-09-09T16:12:37;98055.84;;;27.05;100.00
41886;BME280;27567;43.084;25.616;2022-09-09T16:15:22;98060.06;;;27.03;100.00
41886;BME280;27567;43.084;25.616;2022-09-09T16:18:07;98066.31;;;26.94;100.00